Alpine Haven, Vermont
Current Conditions -  °F | °C
As of 10:35 PM on Saturday 24 Jan 2015 (Local Time) from KEFK Reporting Station
Light Snow Light Snow  
Wind Chill: -3°   Ceiling: 1000
Heat Index: -3°   Visibility: 2mi
Dew Point: -5°   Wind: 0mph
Humidity: 88%   Direction: NA
Pressure: 29.25"   Gusts: NA
Location:  44.8557°N, 72.6016°W
Report Text: KEFK 250335Z AUTO 00000KT 2SM -SN OVC010 M03/M05 A2925 RMK AO2 T10331050
Loading
Personal Weather Stations






























Interactive Weather Map New forecast layout! Learn more

10-Day Weather Forecast

Advertisements
Track Severe Weather on mobile